Holloways Beach, Queensland

11:03 PM AEST on September 22, 2014 (GMT +1000)
APRSWXNET | Change Station
CLOSE
Current Station
Personal Weather Station
Location: Cairns, QU
Elevation: 13 ft
Nearby Weather Stations

Elev 13 ft 16.85 °S, 145.74 °E | Updated 330 days ago

Mostly Cloudy
Mostly Cloudy
71 °F
Feels Like 71 °F
N
8
Wind Variable Wind from SE
Gusts mph

Today
High -- | Low -- °F
--% Chance of Precip.
Yesterday
High -- | Low -- °F
Precip. -- in
6:07 AM 6:13 PM
Waning Crescent, 3% visible
Pressure 30.04 in
Visibility 6.2 miles
Clouds Few 2000 ft
Scattered Clouds 5000 ft
Dew Point 66 °F
Humidity 84%
Rainfall 0.00 in
Snow Depth Not available.
UV 0 out of 12
Pollen Not available.
Air Quality Not available.
Flu Activity Not available.
METAR YBCS 221230Z 16006KT 9999 FEW020 SCT050 23/19 Q1017

More Conditions Fewer Conditions

Pressure 30.04 in
Visibility 6.2 miles
Clouds Few 2000 ft
Scattered Clouds 5000 ft
Dew Point 66 °F
Humidity 84%
Rainfall 0.00 in
Snow Depth Not available.
UV 0 out of 12
Pollen Not available.
Air Quality Not available.
Flu Activity Not available.
METAR YBCS 221230Z 16006KT 9999 FEW020 SCT050 23/19 Q1017

More Conditions Fewer Conditions

10-Day Weather Forecast

Almanac

Astronomy

Sep. 22, 2014 Rise Set
Actual Time 6:07 AM AEST 6:13 PM AEST
Civil Twilight 5:45 AM AEST 6:34 PM AEST
Nautical Twilight 5:20 AM AEST 6:59 PM AEST
Astronomical Twilight 4:55 AM AEST 7:24 PM AEST
Moon 4:31 AM AEST 4:36 PM AEST
Length of Visible Light 12h 49m
Length of Day
12h 05m
Tomorrow will be 0m 57s longer.
Waning Crescent, 3% of the Moon is Illuminated
Today
Waning Crescent
Sep 24
New
Oct 1
First Quarter
Oct 8
Full
Oct 15
Last Quarter

Yesterday's Extremes

Country Highs Country Lows

Community

WunderPhotos

Upload Photos

1,755,419 photos uploaded!

Nearby

Snow Depth

Not available.

Earthquake Activity

City Distance Mag. Time & Date
No recent earthquake activity has been reported nearby.
Minimum magnitude displayed is 2.5.

Coastal Water Temperatures

Place Temperature
No Stations Reporting

Nearby Weather Stations